createdAt,value
2023-08-12T00:02:20.694Z,62.00
2023-08-12T00:04:49.218Z,62.20
2023-08-12T00:07:17.709Z,62.00
2023-08-12T00:09:46.072Z,61.90
2023-08-12T00:12:13.932Z,62.00
2023-08-12T00:14:41.668Z,61.80
2023-08-12T00:17:10.033Z,61.70
2023-08-12T00:19:38.030Z,61.90
2023-08-12T00:22:06.173Z,61.90
2023-08-12T00:24:34.152Z,62.00
2023-08-12T00:27:02.115Z,62.10
2023-08-12T00:29:30.012Z,62.20
2023-08-12T00:31:57.931Z,62.30
2023-08-12T00:34:25.815Z,62.10
2023-08-12T00:36:53.767Z,62.20
2023-08-12T00:39:21.653Z,62.40
2023-08-12T00:41:49.864Z,62.20
2023-08-12T00:44:17.869Z,64.00
2023-08-12T00:46:45.858Z,62.50
2023-08-12T00:49:15.098Z,62.30
2023-08-12T00:51:46.411Z,62.60
2023-08-12T00:54:17.449Z,62.50
2023-08-12T00:56:45.570Z,62.60
2023-08-12T00:59:14.571Z,62.50
2023-08-12T01:01:44.804Z,62.70
2023-08-12T01:04:12.755Z,62.80
2023-08-12T01:06:40.839Z,62.70
2023-08-12T01:09:09.615Z,62.80
2023-08-12T01:11:51.941Z,62.60
2023-08-12T01:14:41.582Z,63.70
2023-08-12T01:17:13.419Z,63.50
2023-08-12T01:19:42.682Z,62.80
2023-08-12T01:22:13.105Z,62.90
2023-08-12T01:24:43.725Z,63.00
2023-08-12T01:27:14.290Z,62.80
2023-08-12T01:29:49.273Z,63.50
2023-08-12T01:32:39.017Z,64.00
2023-08-12T01:35:19.315Z,63.90
2023-08-12T01:37:49.599Z,63.90
2023-08-12T01:40:20.365Z,64.50
2023-08-12T01:42:49.735Z,64.40
2023-08-12T01:45:19.558Z,64.20
2023-08-12T01:47:48.013Z,64.60
2023-08-12T01:50:15.817Z,64.60
2023-08-12T01:52:43.676Z,65.50
2023-08-12T01:55:11.618Z,64.60
2023-08-12T01:57:39.480Z,64.20
2023-08-12T02:00:07.916Z,64.80
2023-08-12T02:02:35.545Z,64.90
2023-08-12T02:05:03.482Z,66.10
2023-08-12T02:07:31.799Z,64.70
2023-08-12T02:09:59.656Z,66.00
2023-08-12T02:12:27.474Z,64.50
2023-08-12T02:14:55.476Z,64.40
2023-08-12T02:17:23.238Z,64.20
2023-08-12T02:19:50.999Z,64.30
2023-08-12T02:22:18.939Z,64.80
2023-08-12T02:24:46.811Z,64.70
2023-08-12T02:27:14.868Z,65.70
2023-08-12T02:29:42.875Z,67.90
2023-08-12T02:32:10.743Z,67.60
2023-08-12T02:34:38.637Z,67.70
2023-08-12T02:37:07.209Z,67.60
2023-08-12T02:39:35.066Z,66.40
2023-08-12T02:42:02.881Z,66.30
2023-08-12T02:44:30.800Z,66.70
2023-08-12T02:46:58.637Z,66.40
2023-08-12T02:49:26.501Z,66.90
2023-08-12T02:51:54.276Z,66.90
2023-08-12T02:54:22.059Z,66.90
2023-08-12T02:56:52.899Z,67.10
2023-08-12T02:59:20.798Z,67.50
2023-08-12T03:01:48.679Z,67.20
2023-08-12T03:04:16.519Z,67.10
2023-08-12T03:06:44.321Z,66.90
2023-08-12T03:09:12.442Z,67.00
2023-08-12T03:11:41.159Z,67.20
2023-08-12T03:14:08.998Z,67.10
2023-08-12T03:16:36.981Z,66.50
2023-08-12T03:19:04.939Z,66.30
2023-08-12T03:21:32.780Z,66.40
2023-08-12T03:24:00.680Z,66.20
2023-08-12T03:26:28.502Z,66.50
2023-08-12T03:28:58.587Z,66.10
2023-08-12T03:31:26.524Z,66.10
2023-08-12T03:33:54.380Z,65.80
2023-08-12T03:36:22.266Z,66.00
2023-08-12T03:38:50.231Z,65.90
2023-08-12T03:41:18.376Z,65.90
2023-08-12T03:43:46.166Z,66.00
2023-08-12T03:46:14.028Z,66.40
2023-08-12T03:48:41.859Z,66.10
2023-08-12T03:51:09.682Z,66.40
2023-08-12T03:53:37.577Z,66.30
2023-08-12T03:56:05.824Z,66.50
2023-08-12T03:58:33.975Z,66.50
2023-08-12T04:01:01.926Z,66.20
2023-08-12T04:03:29.766Z,66.30
2023-08-12T04:05:57.597Z,66.30
2023-08-12T04:08:26.540Z,66.10
2023-08-12T04:10:54.411Z,66.40
2023-08-12T04:13:22.428Z,66.30
2023-08-12T04:15:52.453Z,66.30
2023-08-12T04:18:21.411Z,66.40
2023-08-12T04:20:52.444Z,66.50
2023-08-12T04:23:21.094Z,66.60
2023-08-12T04:25:49.649Z,66.60
2023-08-12T04:28:17.885Z,66.50
2023-08-12T04:30:47.501Z,66.50
2023-08-12T04:33:16.142Z,66.50
2023-08-12T04:35:44.866Z,66.90
2023-08-12T04:38:12.788Z,66.70
2023-08-12T04:40:42.389Z,66.50
2023-08-12T04:43:11.525Z,67.00
2023-08-12T04:45:40.156Z,66.90
2023-08-12T04:48:10.155Z,66.70
2023-08-12T04:50:38.219Z,66.70
2023-08-12T04:53:07.088Z,66.80
2023-08-12T04:55:39.787Z,66.60
2023-08-12T04:58:07.658Z,67.90
2023-08-12T05:00:35.528Z,67.80
2023-08-12T05:03:04.722Z,67.90
2023-08-12T05:05:32.532Z,67.80
2023-08-12T05:08:00.325Z,67.90
2023-08-12T05:10:28.111Z,68.00
2023-08-12T05:12:56.706Z,68.10
2023-08-12T05:15:24.456Z,68.40
2023-08-12T05:17:53.145Z,69.10
2023-08-12T05:20:20.860Z,68.80
2023-08-12T05:22:49.109Z,69.50
2023-08-12T05:25:17.150Z,68.90
2023-08-12T05:27:45.154Z,69.30
2023-08-12T05:30:13.424Z,69.20
2023-08-12T05:32:41.358Z,69.60
2023-08-12T05:35:09.453Z,69.30
2023-08-12T05:37:37.313Z,69.20
2023-08-12T05:40:10.157Z,68.90
2023-08-12T05:42:38.495Z,68.30
2023-08-12T05:45:08.618Z,67.60
2023-08-12T05:47:36.912Z,67.40
2023-08-12T05:50:05.122Z,66.70
2023-08-12T05:52:32.871Z,66.30
2023-08-12T05:55:00.649Z,66.50
2023-08-12T05:57:29.756Z,66.50
2023-08-12T05:59:57.905Z,65.80
2023-08-12T06:02:26.863Z,65.90
2023-08-12T06:04:54.808Z,65.90
2023-08-12T06:07:22.717Z,65.00
2023-08-12T06:09:51.603Z,64.50
2023-08-12T06:12:19.445Z,64.30
2023-08-12T06:14:47.309Z,63.90
2023-08-12T06:17:15.115Z,63.70
2023-08-12T06:19:42.882Z,63.70
2023-08-12T06:22:11.437Z,63.60
2023-08-12T06:24:39.520Z,63.40
2023-08-12T06:27:07.652Z,62.80
2023-08-12T06:29:35.563Z,62.20
2023-08-12T06:32:03.451Z,62.50
2023-08-12T06:34:31.445Z,62.10
2023-08-12T06:36:59.900Z,59.40
2023-08-12T06:39:27.575Z,60.50
2023-08-12T06:41:55.480Z,58.60
2023-08-12T06:44:23.425Z,60.50
2023-08-12T06:46:51.211Z,59.90
2023-08-12T06:49:20.399Z,59.70
2023-08-12T06:51:49.877Z,58.60
2023-08-12T06:54:17.961Z,59.10
2023-08-12T06:56:45.836Z,58.80
2023-08-12T06:59:13.586Z,58.60
2023-08-12T07:01:41.489Z,58.20
2023-08-12T07:04:10.010Z,56.30
2023-08-12T07:06:37.800Z,56.20
2023-08-12T07:09:05.824Z,56.10
2023-08-12T07:11:33.704Z,55.60
2023-08-12T07:14:01.562Z,55.30
2023-08-12T07:16:29.358Z,55.20
2023-08-12T07:18:57.198Z,55.10
2023-08-12T07:21:25.104Z,55.00
2023-08-12T07:24:03.103Z,53.90
2023-08-12T07:26:32.056Z,54.10
2023-08-12T07:28:59.611Z,53.50
2023-08-12T07:31:27.531Z,50.30
2023-08-12T07:33:55.619Z,53.40
2023-08-12T07:36:23.900Z,53.20
2023-08-12T07:38:51.686Z,52.40
2023-08-12T07:41:19.857Z,52.30
2023-08-12T07:43:47.582Z,51.80
2023-08-12T07:46:15.642Z,52.00
2023-08-12T07:48:43.445Z,50.90
2023-08-12T07:51:11.416Z,50.40
2023-08-12T07:53:39.194Z,50.10
2023-08-12T07:56:07.260Z,49.70
2023-08-12T07:58:34.958Z,49.60
2023-08-12T08:01:02.903Z,49.60
2023-08-12T08:03:30.707Z,49.50
2023-08-12T08:05:58.500Z,48.60
2023-08-12T08:08:26.480Z,49.90
2023-08-12T08:10:54.450Z,48.90
2023-08-12T08:13:22.292Z,49.30
2023-08-12T08:15:50.193Z,48.90
2023-08-12T08:18:18.929Z,48.60
2023-08-12T08:20:46.858Z,48.20
2023-08-12T08:23:14.799Z,48.20
2023-08-12T08:25:42.671Z,47.70
2023-08-12T08:28:10.444Z,47.80
2023-08-12T08:30:38.915Z,47.90
2023-08-12T08:33:07.622Z,47.10
2023-08-12T08:35:35.688Z,47.30
2023-08-12T08:38:03.384Z,46.40
2023-08-12T08:40:31.341Z,44.60
2023-08-12T08:43:05.601Z,46.40
2023-08-12T08:45:37.492Z,44.90
2023-08-12T08:48:08.133Z,44.90
2023-08-12T08:50:37.154Z,44.40
2023-08-12T08:53:08.154Z,44.50
2023-08-12T08:55:35.931Z,43.20
2023-08-12T08:58:05.931Z,43.10
2023-08-12T09:00:34.517Z,43.50
2023-08-12T09:03:04.510Z,43.20
2023-08-12T09:05:33.805Z,41.50
2023-08-12T09:08:03.661Z,41.20
2023-08-12T09:10:33.374Z,41.50
2023-08-12T09:13:01.379Z,42.20
2023-08-12T09:15:29.051Z,42.40
2023-08-12T09:17:56.994Z,39.70
2023-08-12T09:20:24.780Z,42.70
2023-08-12T09:22:59.595Z,41.40
2023-08-12T09:25:31.050Z,38.30
2023-08-12T09:28:02.489Z,40.40
2023-08-12T09:30:32.839Z,38.20
2023-08-12T09:33:08.705Z,39.20
2023-08-12T09:35:38.203Z,38.90
2023-08-12T09:38:09.158Z,40.20
2023-08-12T09:40:38.442Z,39.70
2023-08-12T09:43:06.640Z,39.80
2023-08-12T09:45:36.823Z,39.50
2023-08-12T09:48:05.040Z,38.90
2023-08-12T09:50:33.039Z,39.40
2023-08-12T09:53:04.834Z,39.20
2023-08-12T09:55:35.534Z,38.70
2023-08-12T09:58:09.648Z,39.40
2023-08-12T10:00:37.870Z,39.10
2023-08-12T10:03:07.297Z,39.40
2023-08-12T10:05:35.692Z,38.80
2023-08-12T10:08:05.615Z,38.70
2023-08-12T10:10:37.053Z,38.30
2023-08-12T10:13:09.051Z,37.90
2023-08-12T10:15:38.298Z,38.00
2023-08-12T10:18:09.707Z,37.80
2023-08-12T10:20:49.707Z,35.80
2023-08-12T10:23:21.622Z,36.30
2023-08-12T10:25:55.121Z,36.80
2023-08-12T10:28:23.633Z,36.20
2023-08-12T10:30:51.849Z,36.70
2023-08-12T10:33:20.278Z,36.50
2023-08-12T10:35:50.892Z,37.10
2023-08-12T10:38:21.234Z,36.80
2023-08-12T10:40:50.025Z,36.60
2023-08-12T10:43:17.869Z,36.70
2023-08-12T10:45:50.138Z,37.10
2023-08-12T10:48:25.118Z,36.20
2023-08-12T10:51:00.108Z,36.70
2023-08-12T10:53:33.458Z,37.10
2023-08-12T10:56:06.365Z,37.80
2023-08-12T10:58:48.405Z,37.20
2023-08-12T11:01:20.266Z,36.70
2023-08-12T11:03:50.953Z,36.60
2023-08-12T11:06:21.577Z,36.70
2023-08-12T11:08:58.916Z,36.40
2023-08-12T11:11:28.312Z,36.80
2023-08-12T11:14:00.115Z,37.50
2023-08-12T11:16:38.913Z,37.50
2023-08-12T11:19:08.765Z,36.50
2023-08-12T11:21:41.292Z,37.60
2023-08-12T11:24:09.861Z,37.50
2023-08-12T11:26:38.785Z,37.80
2023-08-12T11:29:14.130Z,38.10
2023-08-12T11:31:42.114Z,38.00
2023-08-12T11:34:10.710Z,38.70
2023-08-12T11:36:38.757Z,39.30
2023-08-12T11:39:06.713Z,40.00
2023-08-12T11:41:35.521Z,42.00
2023-08-12T11:44:06.373Z,42.90
2023-08-12T11:46:37.442Z,42.30
2023-08-12T11:49:05.527Z,42.10
2023-08-12T11:51:33.952Z,43.00
2023-08-12T11:54:02.217Z,44.00
2023-08-12T11:56:30.246Z,43.50
2023-08-12T11:58:59.034Z,43.20
2023-08-12T12:01:30.490Z,43.20
2023-08-12T12:04:03.379Z,43.20
2023-08-12T12:06:37.872Z,43.20
2023-08-12T12:09:11.334Z,42.80
2023-08-12T12:11:39.615Z,44.10
2023-08-12T12:14:10.791Z,44.40
2023-08-12T12:16:42.871Z,45.40
2023-08-12T12:19:24.590Z,46.30
2023-08-12T12:21:54.379Z,45.80
2023-08-12T12:24:22.635Z,47.50
2023-08-12T12:26:51.438Z,46.70
2023-08-12T12:29:19.454Z,47.60
2023-08-12T12:31:47.373Z,48.80
2023-08-12T12:34:15.850Z,48.40
2023-08-12T12:36:44.112Z,48.30
2023-08-12T12:39:12.036Z,49.00
2023-08-12T12:41:39.700Z,49.00
2023-08-12T12:44:07.976Z,50.40
2023-08-12T12:46:36.665Z,48.70
2023-08-12T12:49:04.703Z,48.90
2023-08-12T12:51:32.744Z,48.80
2023-08-12T12:54:00.367Z,48.80
2023-08-12T12:56:28.533Z,49.50
2023-08-12T12:58:57.159Z,48.20
2023-08-12T13:01:25.235Z,48.50
2023-08-12T13:03:53.086Z,48.50
2023-08-12T13:06:20.899Z,48.50
2023-08-12T13:08:48.862Z,49.70
2023-08-12T13:11:17.105Z,48.90
2023-08-12T13:13:45.045Z,48.80
2023-08-12T13:16:12.752Z,48.90
2023-08-12T13:18:40.768Z,48.90
2023-08-12T13:21:08.631Z,48.90
2023-08-12T13:23:36.546Z,48.50
2023-08-12T13:26:04.286Z,48.40
2023-08-12T13:28:32.367Z,48.00
2023-08-12T13:31:00.197Z,48.30
2023-08-12T13:33:28.177Z,48.10
2023-08-12T13:35:56.229Z,46.60
2023-08-12T13:38:24.066Z,46.50
2023-08-12T13:40:52.022Z,46.60
2023-08-12T13:43:19.869Z,46.00
2023-08-12T13:45:47.860Z,46.60
2023-08-12T13:48:16.180Z,47.70
2023-08-12T13:50:44.512Z,46.60
2023-08-12T13:53:12.429Z,46.30
2023-08-12T13:55:40.261Z,45.90
2023-08-12T13:58:09.256Z,45.80
2023-08-12T14:00:37.285Z,45.10
2023-08-12T14:03:05.655Z,45.40
2023-08-12T14:05:33.898Z,45.80
2023-08-12T14:08:01.977Z,45.50
2023-08-12T14:10:29.859Z,45.80
2023-08-12T14:12:57.881Z,45.40
2023-08-12T14:15:25.722Z,46.10
2023-08-12T14:17:54.097Z,45.40
2023-08-12T14:20:21.877Z,45.20
2023-08-12T14:22:50.085Z,45.70
2023-08-12T14:25:18.174Z,45.70
2023-08-12T14:27:46.103Z,45.50
2023-08-12T14:30:14.336Z,45.00
2023-08-12T14:32:42.295Z,45.30
2023-08-12T14:35:10.922Z,45.00
2023-08-12T14:37:38.836Z,45.30
2023-08-12T14:40:07.476Z,45.00
2023-08-12T14:42:35.348Z,45.90
2023-08-12T14:45:04.614Z,46.00
2023-08-12T14:47:32.558Z,46.20
2023-08-12T14:50:00.521Z,46.10
2023-08-12T14:52:28.469Z,46.20
2023-08-12T14:54:56.455Z,46.40
2023-08-12T14:57:24.472Z,46.70
2023-08-12T14:59:52.599Z,46.30
2023-08-12T15:02:26.343Z,45.90
2023-08-12T15:04:55.760Z,45.40
2023-08-12T15:07:23.745Z,45.50
2023-08-12T15:09:53.380Z,46.20
2023-08-12T15:12:22.017Z,46.40
2023-08-12T15:14:50.095Z,47.30
2023-08-12T15:17:18.157Z,47.50
2023-08-12T15:19:45.992Z,47.60
2023-08-12T15:22:13.977Z,47.60
2023-08-12T15:24:42.154Z,47.20
2023-08-12T15:27:10.547Z,47.60
2023-08-12T15:29:38.460Z,48.10
2023-08-12T15:32:07.358Z,48.30
2023-08-12T15:34:35.266Z,48.60
2023-08-12T15:37:03.536Z,48.70
2023-08-12T15:39:31.598Z,48.70
2023-08-12T15:41:59.570Z,48.70
2023-08-12T15:44:27.557Z,48.40
2023-08-12T15:46:55.939Z,48.20
2023-08-12T15:49:23.934Z,48.30
2023-08-12T15:51:51.832Z,48.30
2023-08-12T15:54:20.027Z,48.20
2023-08-12T15:56:47.896Z,48.10
2023-08-12T15:59:15.738Z,49.70
2023-08-12T16:01:44.219Z,49.80
2023-08-12T16:04:12.021Z,49.90
2023-08-12T16:06:39.892Z,49.80
2023-08-12T16:09:18.303Z,49.50
2023-08-12T16:11:49.014Z,49.20
2023-08-12T16:14:17.210Z,49.30
2023-08-12T16:16:45.250Z,48.00
2023-08-12T16:19:13.479Z,47.50
2023-08-12T16:21:41.644Z,48.00
2023-08-12T16:24:09.594Z,48.50
2023-08-12T16:26:37.211Z,49.00
2023-08-12T16:29:05.639Z,48.40
2023-08-12T16:31:33.788Z,49.00
2023-08-12T16:34:01.813Z,49.10
2023-08-12T16:36:29.774Z,48.80
2023-08-12T16:38:57.641Z,49.10
2023-08-12T16:41:25.644Z,48.70
2023-08-12T16:43:53.480Z,48.90
2023-08-12T16:46:24.225Z,49.30
2023-08-12T16:48:52.643Z,49.40
2023-08-12T16:51:20.622Z,49.70
2023-08-12T16:53:48.627Z,49.80
2023-08-12T16:56:16.279Z,49.60
2023-08-12T16:58:44.264Z,50.70
2023-08-12T17:01:12.360Z,49.60
2023-08-12T17:03:40.347Z,51.10
2023-08-12T17:06:08.028Z,49.80
2023-08-12T17:08:36.001Z,51.40
2023-08-12T17:11:09.915Z,50.30
2023-08-12T17:13:38.603Z,51.70
2023-08-12T17:16:06.584Z,51.00
2023-08-12T17:18:34.501Z,51.00
2023-08-12T17:21:03.144Z,52.70
2023-08-12T17:23:36.682Z,51.90
2023-08-12T17:26:11.602Z,52.00
2023-08-12T17:28:39.748Z,52.60
2023-08-12T17:31:07.743Z,52.40
2023-08-12T17:33:35.792Z,52.30
2023-08-12T17:36:04.549Z,52.70
2023-08-12T17:38:32.499Z,53.50
2023-08-12T17:41:00.402Z,54.00
2023-08-12T17:43:28.165Z,54.40
2023-08-12T17:45:56.084Z,54.30
2023-08-12T17:48:24.062Z,54.10
2023-08-12T17:50:51.988Z,54.60
2023-08-12T17:53:19.853Z,54.50
2023-08-12T17:55:47.730Z,55.10
2023-08-12T17:58:15.507Z,55.20
2023-08-12T18:00:43.621Z,55.50
2023-08-12T18:03:11.633Z,55.00
2023-08-12T18:05:39.499Z,56.90
2023-08-12T18:08:13.175Z,55.70
2023-08-12T18:10:48.831Z,55.60
2023-08-12T18:13:18.353Z,55.50
2023-08-12T18:15:50.509Z,55.90
2023-08-12T18:18:23.446Z,55.70
2023-08-12T18:20:58.728Z,56.10
2023-08-12T18:23:30.589Z,56.10
2023-08-12T18:25:58.725Z,56.10
2023-08-12T18:28:26.785Z,56.40
2023-08-12T18:30:54.728Z,56.10
2023-08-12T18:33:22.625Z,56.10
2023-08-12T18:35:51.605Z,56.40
2023-08-12T18:38:24.573Z,56.60
2023-08-12T18:40:57.977Z,56.80
2023-08-12T18:43:32.434Z,57.40
2023-08-12T18:46:07.222Z,57.50
2023-08-12T18:48:36.590Z,57.50
2023-08-12T18:51:04.602Z,57.10
2023-08-12T18:53:32.402Z,57.40
2023-08-12T18:56:00.140Z,57.40
2023-08-12T18:58:27.949Z,57.50
2023-08-12T19:00:55.684Z,57.60
2023-08-12T19:03:23.568Z,57.60
2023-08-12T19:05:59.477Z,57.80
2023-08-12T19:08:32.944Z,59.40
2023-08-12T19:11:01.568Z,58.70
2023-08-12T19:13:29.775Z,60.30
2023-08-12T19:15:58.390Z,58.00
2023-08-12T19:18:29.470Z,58.40
2023-08-12T19:20:58.387Z,58.60
2023-08-12T19:23:26.079Z,58.50
2023-08-12T19:25:55.169Z,58.90
2023-08-12T19:28:22.950Z,58.60
2023-08-12T19:30:51.897Z,58.70
2023-08-12T19:33:20.397Z,59.00
2023-08-12T19:35:48.185Z,59.20
2023-08-12T19:38:16.943Z,59.70
2023-08-12T19:40:44.842Z,59.30
2023-08-12T19:43:12.603Z,59.20
2023-08-12T19:45:40.689Z,59.40
2023-08-12T19:48:08.564Z,59.80
2023-08-12T19:50:37.947Z,59.90
2023-08-12T19:53:06.474Z,59.90
2023-08-12T19:55:34.237Z,59.90
2023-08-12T19:58:02.154Z,60.00
2023-08-12T20:00:29.944Z,60.40
2023-08-12T20:02:58.783Z,60.60
2023-08-12T20:05:34.656Z,60.40
2023-08-12T20:08:15.612Z,60.50
2023-08-12T20:10:47.194Z,61.10
2023-08-12T20:13:16.340Z,60.80
2023-08-12T20:15:45.402Z,60.80
2023-08-12T20:18:13.662Z,60.90
2023-08-12T20:20:41.596Z,61.00
2023-08-12T20:23:09.909Z,60.70
2023-08-12T20:25:37.444Z,60.90
2023-08-12T20:28:06.259Z,62.80
2023-08-12T20:30:35.016Z,60.60
2023-08-12T20:33:04.053Z,61.70
2023-08-12T20:35:32.534Z,60.80
2023-08-12T20:38:00.433Z,61.10
2023-08-12T20:40:28.409Z,60.80
2023-08-12T20:42:56.167Z,61.20
2023-08-12T20:45:25.559Z,61.30
2023-08-12T20:47:53.498Z,61.50
2023-08-12T20:50:21.311Z,61.60
2023-08-12T20:52:49.082Z,62.00
2023-08-12T20:55:16.973Z,62.30
2023-08-12T20:57:45.421Z,62.00
2023-08-12T21:00:15.214Z,62.40
2023-08-12T21:02:48.625Z,62.60
2023-08-12T21:05:16.680Z,63.00
2023-08-12T21:07:44.435Z,62.90
2023-08-12T21:10:13.202Z,63.00
2023-08-12T21:12:41.748Z,63.10
2023-08-12T21:15:09.880Z,62.60
2023-08-12T21:17:37.714Z,62.90
2023-08-12T21:20:06.101Z,62.90
2023-08-12T21:22:33.649Z,63.60
2023-08-12T21:25:01.398Z,65.20
2023-08-12T21:27:29.213Z,62.90
2023-08-12T21:29:57.031Z,64.10
2023-08-12T21:32:24.921Z,63.20
2023-08-12T21:34:52.642Z,64.80
2023-08-12T21:37:20.339Z,64.40
2023-08-12T21:39:48.132Z,64.60
2023-08-12T21:42:16.168Z,64.60
2023-08-12T21:44:44.038Z,64.30
2023-08-12T21:47:11.851Z,66.30
2023-08-12T21:49:39.666Z,64.60
2023-08-12T21:52:07.538Z,64.50
2023-08-12T21:54:35.279Z,65.00
2023-08-12T21:57:03.504Z,65.10
2023-08-12T21:59:31.213Z,65.60
2023-08-12T22:01:59.064Z,65.40
2023-08-12T22:04:26.784Z,65.70
2023-08-12T22:06:54.487Z,66.10
2023-08-12T22:09:22.262Z,66.20
2023-08-12T22:11:50.082Z,66.40
2023-08-12T22:14:18.043Z,66.10
2023-08-12T22:16:47.002Z,66.30
2023-08-12T22:19:14.942Z,65.60
2023-08-12T22:21:42.687Z,66.70
2023-08-12T22:24:10.541Z,65.90
2023-08-12T22:26:38.256Z,65.60
2023-08-12T22:29:06.004Z,66.20
2023-08-12T22:31:33.946Z,66.20
2023-08-12T22:34:03.041Z,66.20
2023-08-12T22:36:30.818Z,66.60
2023-08-12T22:38:58.616Z,66.50
2023-08-12T22:41:26.414Z,66.80
2023-08-12T22:43:54.154Z,66.60
2023-08-12T22:46:22.162Z,66.70
2023-08-12T22:48:49.925Z,66.40
2023-08-12T22:51:17.957Z,66.60
2023-08-12T22:53:45.793Z,66.80
2023-08-12T22:56:13.743Z,67.80
2023-08-12T22:58:41.912Z,67.00
2023-08-12T23:01:10.372Z,67.00
2023-08-12T23:03:38.358Z,66.70
2023-08-12T23:06:06.091Z,66.80
2023-08-12T23:08:33.937Z,66.40
2023-08-12T23:11:01.682Z,66.20
2023-08-12T23:13:29.448Z,66.20
2023-08-12T23:15:57.297Z,66.30
2023-08-12T23:18:25.016Z,66.50
2023-08-12T23:20:52.800Z,66.10
2023-08-12T23:23:20.559Z,66.30
2023-08-12T23:25:48.573Z,66.20
2023-08-12T23:28:16.430Z,66.20
2023-08-12T23:30:44.207Z,66.60
2023-08-12T23:33:12.015Z,66.60
2023-08-12T23:35:41.641Z,66.40
2023-08-12T23:38:09.670Z,66.50
2023-08-12T23:40:37.424Z,66.50
2023-08-12T23:43:05.387Z,66.60
2023-08-12T23:45:33.168Z,66.10
2023-08-12T23:48:03.595Z,66.10
2023-08-12T23:50:31.406Z,66.20
2023-08-12T23:52:59.184Z,66.00
2023-08-12T23:55:26.972Z,66.10
2023-08-12T23:57:54.690Z,66.10
